createdAt,value
2022-11-24T00:12:43.631Z,90.2
2022-11-24T00:32:43.642Z,89.8
2022-11-24T00:52:43.668Z,89.1
2022-11-24T01:12:43.663Z,89.4
2022-11-24T01:32:43.568Z,89.2
2022-11-24T01:52:43.575Z,89.6
2022-11-24T02:12:43.586Z,89.3
2022-11-24T02:32:43.587Z,89.1
2022-11-24T02:52:43.599Z,88.3
2022-11-24T03:12:43.603Z,87.3
2022-11-24T03:32:43.572Z,87.7
2022-11-24T03:52:43.577Z,86.8
2022-11-24T04:12:43.585Z,86.3
2022-11-24T04:32:43.498Z,87.0
2022-11-24T04:52:43.508Z,86.8
2022-11-24T05:12:43.583Z,86.4
2022-11-24T05:32:43.528Z,86.6
2022-11-24T05:52:43.534Z,86.6
2022-11-24T06:12:43.482Z,86.8
2022-11-24T06:32:43.455Z,85.5
2022-11-24T06:52:43.466Z,85.4
2022-11-24T07:12:43.472Z,84.5
2022-11-24T07:32:43.508Z,84.7
2022-11-24T07:52:43.495Z,83.2
2022-11-24T08:12:43.416Z,82.8
2022-11-24T08:32:43.409Z,83.3
2022-11-24T08:52:43.423Z,81.0
2022-11-24T09:12:43.432Z,80.7
2022-11-24T09:32:43.447Z,79.1
2022-11-24T09:52:43.447Z,79.9
2022-11-24T10:12:43.373Z,78.0
2022-11-24T10:32:43.366Z,80.4
2022-11-24T10:52:43.459Z,87.5
2022-11-24T11:12:43.442Z,88.5
2022-11-24T11:32:43.305Z,88.4
2022-11-24T11:52:43.307Z,87.8
2022-11-24T12:12:43.320Z,88.6
2022-11-24T12:32:43.435Z,87.4
2022-11-24T12:52:43.353Z,86.5
2022-11-24T13:12:43.419Z,85.3
2022-11-24T13:32:43.438Z,85.4
2022-11-24T13:52:43.482Z,84.8
2022-11-24T14:12:43.447Z,86.2
2022-11-24T14:32:43.307Z,87.0
2022-11-24T14:52:43.353Z,88.1
2022-11-24T15:12:43.399Z,88.9
2022-11-24T15:32:43.220Z,86.8
2022-11-24T15:52:43.233Z,86.8
2022-11-24T16:12:43.321Z,87.2
2022-11-24T16:32:43.159Z,90.1
2022-11-24T16:52:43.193Z,90.5
2022-11-24T17:12:43.317Z,90.8
2022-11-24T17:32:43.304Z,90.8
2022-11-24T17:52:43.159Z,90.8
2022-11-24T18:12:43.199Z,90.9
2022-11-24T18:32:43.129Z,90.4
2022-11-24T18:52:43.140Z,91.0
2022-11-24T19:12:43.246Z,91.7
2022-11-24T19:32:43.237Z,91.8
2022-11-24T19:52:43.174Z,91.5
2022-11-24T20:12:43.213Z,90.5
2022-11-24T20:32:43.223Z,90.0
2022-11-24T20:52:43.193Z,91.3
2022-11-24T21:12:43.175Z,91.6
2022-11-24T21:32:43.062Z,90.2
2022-11-24T21:52:43.118Z,90.5
2022-11-24T22:12:43.288Z,90.4
2022-11-24T22:32:43.085Z,91.3
2022-11-24T22:52:43.095Z,90.4
2022-11-24T23:12:43.105Z,90.0
2022-11-24T23:32:43.119Z,90.3
2022-11-24T23:52:43.118Z,90.6
